Time;durP1;ratioP1;P1;durP2;ratioP2;P2;SDS_P1;SDS_P2;PMS_P1;PMS_P2;Temp;Humidity;BMP_temperature;BMP_pressure;BME280_temperature;BME280_humidity;BME280_pressure;Samples;Min_cycle;Max_cycle;Signal;HPM_P1;HPM_P2
2024/02/16 00:02:04;;;;;;;10.37;5.43;;;8.80;99.90;;;;;;5102773;28;20728;-70
2024/02/16 00:04:32;;;;;;;13.10;6.10;;;8.70;99.90;;;;;;5098041;28;20481;-70
2024/02/16 00:07:01;;;;;;;12.83;6.07;;;8.80;99.90;;;;;;5102694;28;20456;-70
2024/02/16 00:09:29;;;;;;;14.00;6.00;;;8.90;99.90;;;;;;5094516;28;20441;-70
2024/02/16 00:11:59;;;;;;;12.40;5.80;;;8.90;99.90;;;;;;5096744;28;20535;-70
2024/02/16 00:14:27;;;;;;;12.80;5.57;;;8.90;99.90;;;;;;5095441;28;20521;-69
2024/02/16 00:16:55;;;;;;;14.07;5.70;;;8.90;99.90;;;;;;5098197;28;20483;-70
2024/02/16 00:19:23;;;;;;;12.80;5.70;;;8.90;99.90;;;;;;5094312;28;20454;-69
2024/02/16 00:21:51;;;;;;;12.40;5.87;;;8.90;99.90;;;;;;5084436;28;20438;-69
2024/02/16 00:24:19;;;;;;;15.27;5.87;;;8.90;99.90;;;;;;5087726;28;20949;-68
2024/02/16 00:26:47;;;;;;;12.40;5.60;;;8.90;99.90;;;;;;5085066;28;20831;-69
2024/02/16 00:29:17;;;;;;;14.60;5.43;;;8.80;99.90;;;;;;5099020;28;20457;-70
2024/02/16 00:31:45;;;;;;;11.60;5.90;;;8.80;99.90;;;;;;5100821;28;20445;-69
2024/02/16 00:34:13;;;;;;;13.40;4.97;;;8.80;99.90;;;;;;5101855;28;20876;-69
2024/02/16 00:36:41;;;;;;;12.87;5.37;;;8.80;99.90;;;;;;5098564;28;20511;-69
2024/02/16 00:39:09;;;;;;;12.20;5.90;;;8.80;99.90;;;;;;5096893;28;20547;-69
2024/02/16 00:41:37;;;;;;;16.30;4.87;;;8.80;99.90;;;;;;5095503;28;20449;-69
2024/02/16 00:44:05;;;;;;;10.07;4.37;;;8.80;99.90;;;;;;5096373;28;20489;-70
2024/02/16 00:46:36;;;;;;;12.47;5.30;;;8.80;99.90;;;;;;5100404;28;20437;-69
2024/02/16 00:49:04;;;;;;;12.47;4.87;;;8.80;99.90;;;;;;5096180;28;20982;-69
2024/02/16 00:51:32;;;;;;;9.67;4.17;;;8.80;99.90;;;;;;5099167;28;20459;-69
2024/02/16 00:54:00;;;;;;;11.13;5.13;;;8.80;99.90;;;;;;5100956;28;20456;-69
2024/02/16 00:56:28;;;;;;;11.77;5.17;;;8.80;99.90;;;;;;5096420;28;20545;-68
2024/02/16 00:58:56;;;;;;;11.27;4.50;;;8.80;99.90;;;;;;5095530;28;20563;-69
2024/02/16 01:01:26;;;;;;;10.30;4.17;;;8.90;99.90;;;;;;5092078;28;20470;-70
2024/02/16 01:03:55;;;;;;;10.43;4.50;;;8.90;99.90;;;;;;5096052;28;20480;-69
2024/02/16 01:06:23;;;;;;;9.37;3.50;;;8.90;99.90;;;;;;5096984;28;21017;-69
2024/02/16 01:08:51;;;;;;;9.50;4.10;;;9.00;99.90;;;;;;5099090;28;20941;-69
2024/02/16 01:11:19;;;;;;;9.83;3.70;;;8.90;99.90;;;;;;5098359;28;20446;-68
2024/02/16 01:13:47;;;;;;;12.33;4.17;;;9.00;99.90;;;;;;5096937;28;20500;-68
2024/02/16 01:16:17;;;;;;;11.60;3.97;;;9.00;99.90;;;;;;5097532;28;21033;-69
2024/02/16 01:18:45;;;;;;;10.13;4.30;;;9.00;99.90;;;;;;5098811;28;20439;-69
2024/02/16 01:21:15;;;;;;;12.40;5.57;;;9.00;99.90;;;;;;5090989;28;20555;-70
2024/02/16 01:23:44;;;;;;;11.80;6.03;;;9.10;99.90;;;;;;5100031;28;21188;-70
2024/02/16 01:26:12;;;;;;;12.27;4.80;;;9.10;99.90;;;;;;5104161;28;20441;-69
2024/02/16 01:28:40;;;;;;;11.20;4.33;;;9.10;99.90;;;;;;5104561;28;20958;-70
2024/02/16 01:31:09;;;;;;;10.93;4.20;;;9.10;99.90;;;;;;5087531;28;20444;-70
2024/02/16 01:33:38;;;;;;;11.90;4.23;;;9.10;99.90;;;;;;5106690;28;21012;-70
2024/02/16 01:36:07;;;;;;;12.23;3.77;;;9.00;99.90;;;;;;5110599;28;20445;-70
2024/02/16 01:38:36;;;;;;;11.00;3.93;;;9.00;99.90;;;;;;5110008;28;20541;-70
2024/02/16 01:41:07;;;;;;;10.87;4.50;;;8.90;99.90;;;;;;5098741;28;20577;-70
2024/02/16 01:43:35;;;;;;;10.27;4.67;;;8.90;99.90;;;;;;5096507;28;20486;-70
2024/02/16 01:46:03;;;;;;;12.20;4.77;;;8.90;99.90;;;;;;5098467;28;20441;-70
2024/02/16 01:48:31;;;;;;;11.03;4.43;;;8.80;99.90;;;;;;5094738;28;20533;-70
2024/02/16 01:51:02;;;;;;;12.90;5.63;;;8.80;99.90;;;;;;5099222;28;20457;-69
2024/02/16 01:53:30;;;;;;;12.07;5.03;;;8.90;99.90;;;;;;5101373;28;20496;-70
2024/02/16 01:55:59;;;;;;;11.33;5.07;;;8.90;99.90;;;;;;5094368;28;20448;-69
2024/02/16 01:58:28;;;;;;;13.37;5.10;;;9.00;99.90;;;;;;5101733;28;20526;-69
2024/02/16 02:00:55;;;;;;;13.70;5.70;;;9.10;99.90;;;;;;5103766;28;20443;-69
2024/02/16 02:03:24;;;;;;;12.40;5.40;;;9.10;99.90;;;;;;5104191;28;20492;-69
2024/02/16 02:05:54;;;;;;;11.10;4.70;;;9.10;99.90;;;;;;5104008;28;20483;-69
2024/02/16 02:08:22;;;;;;;11.20;5.13;;;9.10;99.90;;;;;;5097888;28;20444;-69
2024/02/16 02:10:50;;;;;;;13.67;5.20;;;9.10;99.90;;;;;;5103784;28;20439;-69
2024/02/16 02:13:21;;;;;;;11.63;5.17;;;9.10;99.90;;;;;;5104302;28;21077;-67
2024/02/16 02:15:49;;;;;;;10.27;4.80;;;9.10;99.90;;;;;;5095621;28;20926;-69
2024/02/16 02:18:18;;;;;;;10.30;4.57;;;9.10;99.90;;;;;;5104171;28;20433;-69
2024/02/16 02:20:46;;;;;;;11.77;4.77;;;9.20;99.90;;;;;;5104064;28;20528;-70
2024/02/16 02:23:15;;;;;;;10.53;4.43;;;9.20;99.90;;;;;;5095621;28;20510;-70
2024/02/16 02:25:43;;;;;;;10.10;4.10;;;9.20;99.90;;;;;;5104469;28;20936;-70
2024/02/16 02:28:11;;;;;;;9.77;3.50;;;9.20;99.90;;;;;;5102852;28;20961;-70
2024/02/16 02:30:39;;;;;;;8.60;3.00;;;9.20;99.90;;;;;;5105079;28;20460;-70
2024/02/16 02:33:09;;;;;;;10.00;3.50;;;9.40;99.90;;;;;;5097060;28;20458;-70
2024/02/16 02:35:37;;;;;;;9.60;3.80;;;9.50;99.90;;;;;;5103052;28;21307;-70
2024/02/16 02:38:05;;;;;;;9.50;3.33;;;9.50;99.90;;;;;;5104499;28;21032;-71
2024/02/16 02:40:34;;;;;;;9.30;2.97;;;9.50;99.90;;;;;;5107855;28;20442;-70
2024/02/16 02:43:03;;;;;;;9.30;3.00;;;9.60;99.90;;;;;;5090055;28;20934;-70
2024/02/16 02:45:31;;;;;;;8.67;2.97;;;9.50;99.90;;;;;;5089339;28;20535;-71
2024/02/16 02:47:59;;;;;;;9.93;3.43;;;9.40;99.90;;;;;;5106205;28;20455;-71
2024/02/16 02:50:28;;;;;;;10.70;3.40;;;9.40;99.90;;;;;;5101200;28;20813;-71
2024/02/16 02:52:56;;;;;;;10.40;3.87;;;9.40;99.90;;;;;;5105639;28;20556;-71
2024/02/16 02:55:23;;;;;;;9.40;3.27;;;9.40;99.90;;;;;;5088067;28;20450;-71
2024/02/16 02:57:53;;;;;;;9.90;4.00;;;9.30;99.90;;;;;;5088090;28;20500;-71
2024/02/16 03:00:25;;;;;;;10.70;3.27;;;9.30;99.90;;;;;;5092329;28;20445;-70
2024/02/16 03:02:53;;;;;;;10.80;4.67;;;9.30;99.90;;;;;;5106269;28;20496;-71
2024/02/16 03:05:24;;;;;;;11.20;3.73;;;9.20;99.90;;;;;;5106884;28;20484;-71
2024/02/16 03:07:52;;;;;;;12.30;4.17;;;9.20;99.90;;;;;;5091369;28;20446;-71
2024/02/16 03:10:24;;;;;;;12.87;3.90;;;9.10;99.90;;;;;;5087544;28;20933;-70
2024/02/16 03:12:54;;;;;;;12.60;4.43;;;9.10;99.90;;;;;;5097232;28;20522;-71
2024/02/16 03:15:22;;;;;;;10.53;4.40;;;9.10;99.90;;;;;;5107981;28;20517;-70
2024/02/16 03:17:51;;;;;;;9.80;4.00;;;9.00;99.90;;;;;;5108167;28;20453;-70
2024/02/16 03:20:19;;;;;;;10.80;4.03;;;9.00;99.90;;;;;;5107548;28;20447;-69
2024/02/16 03:22:47;;;;;;;9.50;3.83;;;9.00;99.90;;;;;;5090814;28;20953;-70
2024/02/16 03:25:14;;;;;;;11.70;5.00;;;8.90;99.90;;;;;;5086989;28;20558;-70
2024/02/16 03:27:44;;;;;;;13.20;4.00;;;8.90;99.90;;;;;;5087402;28;20456;-70
2024/02/16 03:30:13;;;;;;;10.80;4.07;;;8.90;99.90;;;;;;5087288;28;20453;-70
2024/02/16 03:32:42;;;;;;;10.10;4.70;;;8.90;99.90;;;;;;5090395;28;20909;-70
2024/02/16 03:35:10;;;;;;;10.00;4.27;;;8.90;99.90;;;;;;5087039;28;20443;-69
2024/02/16 03:37:37;;;;;;;11.10;4.70;;;8.80;99.90;;;;;;5091977;28;21157;-69
2024/02/16 03:40:08;;;;;;;11.00;4.70;;;8.80;99.90;;;;;;5106399;28;20447;-70
2024/02/16 03:42:36;;;;;;;9.47;4.60;;;8.80;99.90;;;;;;5105626;28;20456;-69
2024/02/16 03:45:04;;;;;;;14.47;6.70;;;8.90;99.90;;;;;;5108326;28;21011;-68
2024/02/16 03:47:33;;;;;;;12.93;6.70;;;9.00;99.90;;;;;;5108714;28;20452;-70
2024/02/16 03:50:01;;;;;;;12.20;6.20;;;9.00;99.90;;;;;;5108654;28;20452;-70
2024/02/16 03:52:30;;;;;;;13.53;6.47;;;8.90;99.90;;;;;;5106758;28;20491;-70
2024/02/16 03:54:58;;;;;;;14.60;6.67;;;8.80;99.90;;;;;;5094454;28;20532;-70
2024/02/16 03:57:26;;;;;;;15.20;6.80;;;8.80;99.90;;;;;;5106638;28;20442;-69
2024/02/16 03:59:54;;;;;;;12.77;6.33;;;8.70;99.90;;;;;;5107383;28;20448;-70
2024/02/16 04:02:22;;;;;;;12.37;6.57;;;8.80;99.90;;;;;;5106552;28;20831;-70
2024/02/16 04:04:51;;;;;;;12.50;5.53;;;8.80;99.90;;;;;;5107010;28;20481;-69
2024/02/16 04:07:19;;;;;;;11.40;4.80;;;8.70;99.90;;;;;;5106289;28;20516;-70
2024/02/16 04:09:47;;;;;;;12.20;4.97;;;8.70;99.90;;;;;;5107162;28;20437;-69
2024/02/16 04:12:15;;;;;;;11.17;5.60;;;8.70;99.90;;;;;;5106132;28;20475;-69
2024/02/16 04:14:43;;;;;;;12.60;4.90;;;8.70;99.90;;;;;;5106558;28;20492;-69
2024/02/16 04:17:11;;;;;;;14.00;4.87;;;8.70;99.90;;;;;;5106309;28;20498;-70
2024/02/16 04:19:39;;;;;;;11.87;4.73;;;8.70;99.90;;;;;;5107230;28;20461;-70
2024/02/16 04:22:09;;;;;;;11.60;4.67;;;8.80;99.90;;;;;;5103112;28;20525;-70
2024/02/16 04:24:37;;;;;;;9.87;3.73;;;8.90;99.90;;;;;;5107882;28;20487;-70
2024/02/16 04:27:08;;;;;;;9.93;4.03;;;8.90;99.90;;;;;;5107216;28;21056;-70
2024/02/16 04:29:36;;;;;;;9.07;3.63;;;9.00;99.90;;;;;;5107775;28;20522;-69
2024/02/16 04:32:07;;;;;;;9.57;3.40;;;9.00;99.90;;;;;;5107163;28;20457;-70
2024/02/16 04:34:35;;;;;;;9.50;3.17;;;9.10;99.90;;;;;;5107268;28;20461;-69
2024/02/16 04:37:03;;;;;;;8.83;3.23;;;9.10;99.90;;;;;;5107041;28;20479;-69
2024/02/16 04:39:33;;;;;;;8.97;3.70;;;9.10;99.90;;;;;;5107746;28;20524;-69
2024/02/16 04:42:01;;;;;;;9.80;3.40;;;9.10;99.90;;;;;;5106282;28;20468;-69
2024/02/16 04:44:29;;;;;;;9.20;3.67;;;9.10;99.90;;;;;;5106434;28;20470;-69
2024/02/16 04:46:56;;;;;;;9.50;3.83;;;9.20;99.90;;;;;;5106055;28;20537;-70
2024/02/16 04:49:24;;;;;;;9.17;3.20;;;9.20;99.90;;;;;;5106849;28;20446;-70
2024/02/16 04:51:52;;;;;;;9.23;3.67;;;9.30;99.90;;;;;;5106054;28;20459;-70
2024/02/16 04:54:20;;;;;;;9.37;3.33;;;9.30;99.90;;;;;;5094506;28;20721;-70
2024/02/16 04:56:50;;;;;;;10.63;3.33;;;9.30;99.90;;;;;;5085992;28;20464;-70
2024/02/16 04:59:18;;;;;;;8.97;3.47;;;9.30;99.90;;;;;;5086309;28;20446;-70
2024/02/16 05:01:46;;;;;;;11.20;3.40;;;9.30;99.90;;;;;;5085485;28;20450;-70
2024/02/16 05:04:16;;;;;;;9.83;4.07;;;9.30;99.90;;;;;;5086049;28;20469;-70
2024/02/16 05:06:45;;;;;;;11.10;4.30;;;9.30;99.90;;;;;;5085775;28;21149;-69
2024/02/16 05:09:16;;;;;;;11.90;4.43;;;9.30;99.90;;;;;;5090034;28;20448;-69
2024/02/16 05:11:45;;;;;;;10.50;4.90;;;9.30;99.90;;;;;;5086150;28;20451;-69
2024/02/16 05:14:14;;;;;;;11.57;4.40;;;9.30;99.90;;;;;;5090527;28;20830;-69
2024/02/16 05:16:45;;;;;;;10.70;4.30;;;9.30;99.90;;;;;;5098460;28;20493;-70
2024/02/16 05:19:13;;;;;;;12.97;5.83;;;9.30;99.90;;;;;;5107129;28;20539;-70
2024/02/16 05:21:41;;;;;;;10.40;5.27;;;9.40;99.90;;;;;;5106625;28;20545;-69
2024/02/16 05:24:08;;;;;;;11.77;4.80;;;9.50;99.90;;;;;;5104671;28;20486;-69
2024/02/16 05:26:37;;;;;;;12.03;4.20;;;9.30;99.90;;;;;;5099695;28;20858;-70
2024/02/16 05:29:05;;;;;;;10.23;4.30;;;9.30;99.90;;;;;;5105979;28;20510;-70
2024/02/16 05:31:34;;;;;;;14.27;5.27;;;9.30;99.90;;;;;;5105762;28;20545;-69
2024/02/16 05:34:02;;;;;;;11.83;4.90;;;9.30;99.90;;;;;;5109177;28;20952;-69
2024/02/16 05:36:35;;;;;;;11.30;4.80;;;9.20;99.90;;;;;;5104299;28;20823;-70
2024/02/16 05:39:20;;;;;;;10.67;4.80;;;9.20;99.90;;;;;;5091108;28;20924;-69
2024/02/16 05:41:49;;;;;;;10.90;4.40;;;9.10;99.90;;;;;;5096554;28;20559;-69
2024/02/16 05:44:17;;;;;;;12.17;4.63;;;9.00;99.90;;;;;;5089367;28;20453;-69
2024/02/16 05:46:47;;;;;;;12.40;5.60;;;9.00;99.90;;;;;;5089199;28;21319;-69
2024/02/16 05:49:15;;;;;;;12.30;5.90;;;9.10;99.90;;;;;;5089975;28;20560;-69
2024/02/16 05:52:01;;;;;;;17.37;6.73;;;9.10;99.90;;;;;;5093299;28;20447;-69
2024/02/16 05:54:31;;;;;;;12.83;5.20;;;9.00;99.90;;;;;;5096609;28;20474;-70
2024/02/16 05:57:01;;;;;;;14.87;5.70;;;9.00;99.90;;;;;;5100318;28;20454;-70
2024/02/16 05:59:32;;;;;;;12.67;5.87;;;9.10;99.90;;;;;;5110177;28;20449;-69
2024/02/16 06:02:01;;;;;;;11.00;5.40;;;9.10;99.90;;;;;;5109492;28;20445;-70
2024/02/16 06:04:29;;;;;;;15.20;5.30;;;9.00;99.90;;;;;;5110063;28;20477;-70
2024/02/16 06:06:57;;;;;;;12.20;5.77;;;8.90;99.90;;;;;;5108699;28;20856;-70
2024/02/16 06:09:26;;;;;;;11.30;5.30;;;8.80;99.90;;;;;;5109355;28;20445;-69
2024/02/16 06:11:54;;;;;;;12.20;6.13;;;8.80;99.90;;;;;;5108068;28;20486;-69
2024/02/16 06:14:30;;;;;;;13.60;6.33;;;8.70;99.90;;;;;;5104435;28;20465;-69
2024/02/16 06:16:58;;;;;;;10.80;4.73;;;8.80;99.90;;;;;;5108673;28;21000;-69
2024/02/16 06:19:27;;;;;;;11.47;5.70;;;8.70;99.90;;;;;;5109363;28;20994;-69
2024/02/16 06:21:57;;;;;;;10.37;5.03;;;8.70;99.90;;;;;;5108241;28;20501;-69
2024/02/16 06:24:25;;;;;;;11.73;5.60;;;8.70;99.90;;;;;;5109432;28;20540;-70
2024/02/16 06:26:54;;;;;;;11.40;5.50;;;8.70;99.90;;;;;;5107789;28;20477;-69
2024/02/16 06:29:24;;;;;;;12.47;5.87;;;8.70;99.90;;;;;;5102513;28;20792;-70
2024/02/16 06:31:52;;;;;;;13.90;6.10;;;8.70;99.90;;;;;;5109297;28;20442;-70
2024/02/16 06:34:20;;;;;;;12.13;5.03;;;8.80;99.90;;;;;;5108293;28;21007;-70
2024/02/16 06:36:50;;;;;;;12.37;5.47;;;8.90;99.90;;;;;;5108385;28;20544;-71
2024/02/16 06:39:18;;;;;;;10.97;5.10;;;9.00;99.90;;;;;;5102030;28;20462;-71
2024/02/16 06:41:47;;;;;;;11.10;5.77;;;9.00;99.90;;;;;;5108409;28;20829;-70
2024/02/16 06:44:16;;;;;;;11.40;5.47;;;8.90;99.90;;;;;;5096859;28;21089;-71
2024/02/16 06:46:46;;;;;;;14.63;4.93;;;8.80;99.90;;;;;;5103098;28;21169;-71
2024/02/16 06:49:14;;;;;;;15.87;5.50;;;8.80;99.90;;;;;;5108754;28;20505;-70
2024/02/16 06:51:42;;;;;;;11.67;4.90;;;8.70;99.90;;;;;;5107868;28;20488;-70
2024/02/16 06:54:11;;;;;;;12.13;4.90;;;8.70;99.90;;;;;;5089313;28;20500;-70
2024/02/16 06:56:39;;;;;;;12.97;5.23;;;8.70;99.90;;;;;;5087770;28;20808;-69
2024/02/16 06:59:08;;;;;;;14.60;5.07;;;8.70;99.90;;;;;;5096685;28;20468;-70
2024/02/16 07:01:36;;;;;;;10.43;4.53;;;8.70;99.90;;;;;;5108016;28;20510;-70
2024/02/16 07:04:05;;;;;;;11.70;4.30;;;8.70;99.90;;;;;;5108001;28;20492;-70
2024/02/16 07:06:33;;;;;;;9.13;3.70;;;8.70;99.90;;;;;;5108538;28;20480;-69
2024/02/16 07:09:02;;;;;;;10.23;4.33;;;8.70;99.90;;;;;;5109263;28;20478;-69
2024/02/16 07:11:31;;;;;;;11.10;4.87;;;8.80;99.90;;;;;;5108363;28;20449;-69
2024/02/16 07:14:02;;;;;;;11.00;4.33;;;8.90;99.90;;;;;;5107141;28;20542;-70
2024/02/16 07:16:31;;;;;;;11.10;4.00;;;9.00;99.90;;;;;;5107450;28;20450;-70
2024/02/16 07:18:59;;;;;;;11.20;4.37;;;9.10;99.90;;;;;;5107855;28;20449;-70
2024/02/16 07:21:27;;;;;;;11.20;4.90;;;9.10;99.90;;;;;;5106933;28;20446;-69
2024/02/16 07:23:56;;;;;;;11.73;4.50;;;9.10;99.90;;;;;;5107824;28;20981;-69
2024/02/16 07:26:24;;;;;;;11.10;4.30;;;9.20;99.90;;;;;;5107545;28;20860;-69
2024/02/16 07:28:53;;;;;;;11.00;4.23;;;9.30;99.90;;;;;;5108165;28;20451;-69
2024/02/16 07:31:21;;;;;;;11.07;4.63;;;9.40;99.90;;;;;;5102642;28;20450;-69
2024/02/16 07:33:52;;;;;;;11.20;4.17;;;9.40;99.90;;;;;;5094079;28;20471;-70
2024/02/16 07:36:20;;;;;;;11.13;4.87;;;9.30;99.90;;;;;;5087785;27;20454;-71
2024/02/16 07:38:48;;;;;;;10.80;4.13;;;9.30;99.90;;;;;;5087550;28;20490;-70
2024/02/16 07:41:16;;;;;;;13.00;5.10;;;9.30;99.90;;;;;;5085418;28;20476;-70
2024/02/16 07:43:44;;;;;;;12.93;4.77;;;9.40;99.90;;;;;;5088192;28;20558;-70
2024/02/16 07:46:14;;;;;;;10.83;4.60;;;9.30;99.90;;;;;;5089165;28;20456;-70
2024/02/16 07:48:42;;;;;;;12.13;5.03;;;9.30;99.90;;;;;;5107691;28;20484;-70
2024/02/16 07:51:10;;;;;;;10.37;4.67;;;9.20;99.90;;;;;;5087960;28;20457;-70
2024/02/16 07:53:41;;;;;;;13.60;5.40;;;9.10;99.90;;;;;;5087061;28;20567;-70
2024/02/16 07:56:09;;;;;;;13.07;5.77;;;9.10;99.90;;;;;;5085453;28;20448;-70
2024/02/16 07:58:37;;;;;;;13.60;5.20;;;9.00;99.90;;;;;;5087425;28;20492;-70
2024/02/16 08:01:06;;;;;;;12.40;5.30;;;9.00;99.90;;;;;;5095222;28;20541;-70
2024/02/16 08:03:35;;;;;;;12.97;5.50;;;8.90;99.90;;;;;;5107002;28;20482;-70
2024/02/16 08:06:03;;;;;;;10.87;5.07;;;8.90;99.90;;;;;;5104086;28;20446;-70
2024/02/16 08:08:32;;;;;;;11.30;5.43;;;8.80;99.90;;;;;;5107600;28;20521;-70
2024/02/16 08:10:59;;;;;;;10.93;5.47;;;8.80;99.90;;;;;;5106842;28;20480;-70
2024/02/16 08:13:28;;;;;;;13.20;5.60;;;8.80;99.90;;;;;;5107234;28;20570;-70
2024/02/16 08:15:57;;;;;;;11.23;6.20;;;8.80;99.90;;;;;;5106923;28;20459;-67
2024/02/16 08:18:25;;;;;;;19.00;9.30;;;8.90;99.90;;;;;;5106106;28;20464;-69
2024/02/16 08:20:54;;;;;;;14.50;6.40;;;9.10;99.90;;;;;;5106675;28;20442;-69
2024/02/16 08:23:22;;;;;;;14.93;6.93;;;9.20;99.90;;;;;;5106357;28;20457;-69
2024/02/16 08:25:50;;;;;;;15.83;6.40;;;9.70;99.90;;;;;;5105940;28;20449;-69
2024/02/16 08:28:18;;;;;;;12.33;6.30;;;10.10;99.90;;;;;;5105558;28;20880;-69
2024/02/16 08:30:46;;;;;;;14.13;6.10;;;10.70;99.90;;;;;;5106378;28;20453;-67
2024/02/16 08:33:15;;;;;;;15.50;6.50;;;11.10;99.90;;;;;;5106573;28;20476;-69
2024/02/16 08:35:43;;;;;;;12.23;6.63;;;11.50;99.90;;;;;;5105979;28;20459;-69
2024/02/16 08:38:12;;;;;;;15.90;6.80;;;11.90;99.90;;;;;;5088412;28;20442;-69
2024/02/16 08:40:41;;;;;;;11.70;6.37;;;12.40;99.90;;;;;;5086629;28;20449;-69
2024/02/16 08:43:09;;;;;;;12.00;5.80;;;12.90;99.90;;;;;;5086724;28;20466;-69
2024/02/16 08:45:37;;;;;;;12.27;5.47;;;13.30;99.90;;;;;;5086512;28;20438;-68
2024/02/16 08:48:05;;;;;;;11.30;5.50;;;13.60;99.90;;;;;;5091571;28;20481;-69
2024/02/16 08:50:33;;;;;;;11.90;5.60;;;13.90;99.90;;;;;;5087682;28;20499;-69
2024/02/16 08:53:01;;;;;;;11.70;5.27;;;14.20;99.90;;;;;;5103295;28;20468;-70
2024/02/16 08:55:31;;;;;;;11.80;5.53;;;14.50;99.90;;;;;;5106722;28;20456;-69
2024/02/16 08:57:59;;;;;;;12.00;4.97;;;14.80;99.90;;;;;;5107168;28;20445;-69
2024/02/16 09:00:28;;;;;;;13.10;5.10;;;15.10;99.90;;;;;;5107485;28;20451;-69
2024/02/16 09:02:57;;;;;;;12.57;4.87;;;15.40;99.90;;;;;;5106944;28;20480;-69
2024/02/16 09:05:25;;;;;;;11.80;4.53;;;15.70;99.90;;;;;;5102389;28;20455;-70
2024/02/16 09:07:54;;;;;;;10.57;5.00;;;15.90;99.90;;;;;;5104702;28;20641;-70
2024/02/16 09:10:21;;;;;;;14.70;5.77;;;16.10;99.90;;;;;;5111370;28;20452;-69
2024/02/16 09:12:52;;;;;;;13.70;4.90;;;16.40;99.90;;;;;;5095379;28;20438;-69
2024/02/16 09:15:20;;;;;;;11.33;4.80;;;16.60;99.70;;;;;;5090810;28;20525;-70
2024/02/16 09:17:50;;;;;;;13.33;4.60;;;16.80;98.40;;;;;;5090576;28;20438;-68
2024/02/16 09:20:22;;;;;;;11.90;4.10;;;17.20;97.30;;;;;;5098765;28;20445;-67
2024/02/16 09:22:52;;;;;;;9.83;3.53;;;17.50;96.00;;;;;;5089428;28;20453;-67
2024/02/16 09:25:21;;;;;;;9.60;3.80;;;17.90;93.20;;;;;;5089150;28;20495;-67
2024/02/16 09:27:48;;;;;;;11.20;4.37;;;18.20;92.00;;;;;;5089876;28;21141;-69
2024/02/16 09:30:24;;;;;;;10.47;4.60;;;18.50;89.70;;;;;;5089655;28;21242;-69
2024/02/16 09:32:52;;;;;;;12.43;4.47;;;19.00;87.60;;;;;;5096232;28;20450;-69
2024/02/16 09:35:20;;;;;;;10.40;3.67;;;19.20;86.50;;;;;;5091815;28;20456;-69
2024/02/16 09:37:48;;;;;;;9.70;4.07;;;19.60;82.90;;;;;;5099848;28;20430;-71
2024/02/16 09:40:18;;;;;;;10.80;4.10;;;20.00;78.20;;;;;;5097854;28;20457;-68
2024/02/16 09:42:50;;;;;;;10.33;3.73;;;20.30;76.00;;;;;;5097792;28;20497;-69
2024/02/16 09:45:19;;;;;;;9.37;3.67;;;20.40;76.50;;;;;;5107376;28;20440;-68
2024/02/16 09:47:49;;;;;;;10.43;4.10;;;20.30;73.80;;;;;;5103524;28;20485;-68
2024/02/16 09:50:30;;;;;;;10.80;3.63;;;19.90;72.30;;;;;;5107158;28;20432;-69
2024/02/16 09:52:59;;;;;;;11.87;3.77;;;19.20;74.20;;;;;;5105437;28;21054;-69
2024/02/16 09:55:32;;;;;;;8.80;3.80;;;18.80;74.50;;;;;;5099888;28;20568;-69
2024/02/16 09:58:00;;;;;;;10.27;3.90;;;18.40;75.00;;;;;;5105518;28;20447;-69
2024/02/16 10:00:28;;;;;;;10.00;4.30;;;18.40;77.80;;;;;;5105660;28;20434;-69
2024/02/16 10:03:01;;;;;;;11.60;4.37;;;18.90;75.70;;;;;;5094256;28;20450;-68
2024/02/16 10:05:30;;;;;;;10.70;4.00;;;19.20;74.70;;;;;;5100388;28;20444;-69
2024/02/16 10:07:58;;;;;;;9.70;3.67;;;19.60;72.90;;;;;;5106945;28;20542;-69
2024/02/16 10:10:30;;;;;;;10.30;4.00;;;20.10;70.70;;;;;;5107700;28;20433;-69
2024/02/16 10:13:03;;;;;;;13.03;4.60;;;20.60;70.50;;;;;;5100903;28;20461;-69
2024/02/16 10:15:32;;;;;;;13.00;4.13;;;21.10;68.60;;;;;;5102596;28;20434;-68
2024/02/16 10:18:02;;;;;;;11.00;4.73;;;21.20;67.60;;;;;;5102264;28;20437;-70
2024/02/16 10:20:31;;;;;;;10.73;4.57;;;21.10;66.30;;;;;;5089814;28;20976;-69
2024/02/16 10:23:06;;;;;;;12.70;3.63;;;20.80;67.30;;;;;;5100253;28;20475;-68
2024/02/16 10:25:34;;;;;;;10.57;4.30;;;20.70;69.20;;;;;;5100113;28;21102;-68
2024/02/16 10:28:06;;;;;;;13.30;4.33;;;20.40;69.30;;;;;;5105794;28;20472;-67
2024/02/16 10:30:38;;;;;;;10.70;4.10;;;20.20;71.20;;;;;;5096566;28;20434;-69
2024/02/16 10:33:08;;;;;;;10.67;4.40;;;20.10;72.60;;;;;;5106263;28;20461;-69
2024/02/16 10:35:37;;;;;;;10.73;4.43;;;20.10;71.50;;;;;;5095377;28;20453;-69
2024/02/16 10:38:09;;;;;;;10.40;3.90;;;20.20;72.00;;;;;;5104633;28;20520;-69
2024/02/16 10:40:39;;;;;;;10.30;4.00;;;20.20;70.30;;;;;;5102083;28;20533;-69
2024/02/16 10:43:09;;;;;;;13.87;5.10;;;20.40;69.40;;;;;;5103478;28;21064;-69
2024/02/16 10:45:38;;;;;;;9.47;4.10;;;20.50;71.10;;;;;;5096058;28;20516;-69
2024/02/16 10:48:09;;;;;;;11.77;3.60;;;20.60;69.20;;;;;;5098088;28;20509;-69
2024/02/16 10:50:38;;;;;;;11.23;4.30;;;20.40;70.50;;;;;;5103386;28;20521;-69
2024/02/16 10:53:13;;;;;;;12.50;3.73;;;20.40;70.50;;;;;;5102477;28;20449;-69
2024/02/16 10:55:41;;;;;;;9.10;3.60;;;20.20;70.10;;;;;;5101475;28;20457;-69
2024/02/16 10:58:10;;;;;;;14.17;4.07;;;20.20;71.10;;;;;;5105075;28;20819;-69
2024/02/16 11:00:49;;;;;;;11.33;3.90;;;20.00;70.30;;;;;;5104260;28;20438;-69
2024/02/16 11:03:24;;;;;;;10.37;3.13;;;19.90;72.60;;;;;;5103643;28;20475;-68
2024/02/16 11:05:52;;;;;;;9.97;3.67;;;19.80;72.30;;;;;;5105363;28;20438;-69
2024/02/16 11:08:26;;;;;;;10.40;3.57;;;19.60;71.20;;;;;;5098093;28;20550;-68
2024/02/16 11:10:58;;;;;;;11.67;3.67;;;19.40;72.90;;;;;;5103256;28;20445;-69
2024/02/16 11:13:27;;;;;;;8.37;3.27;;;19.40;73.50;;;;;;5105729;28;20485;-69
2024/02/16 11:16:00;;;;;;;8.20;3.20;;;19.40;73.90;;;;;;5101628;28;20498;-68
2024/02/16 11:18:30;;;;;;;11.10;4.07;;;19.40;72.70;;;;;;5103641;28;20458;-69
2024/02/16 11:21:02;;;;;;;10.30;3.97;;;19.40;73.80;;;;;;5099892;28;20853;-69
2024/02/16 11:23:31;;;;;;;11.20;3.10;;;19.60;73.50;;;;;;5099166;28;21022;-69
2024/02/16 11:26:03;;;;;;;11.33;2.87;;;19.80;73.30;;;;;;5101471;28;20441;-68
2024/02/16 11:28:33;;;;;;;9.37;2.97;;;20.00;73.70;;;;;;5099167;28;21006;-67
2024/02/16 11:31:02;;;;;;;8.90;2.90;;;20.10;72.80;;;;;;5103641;28;20823;-70
2024/02/16 11:33:32;;;;;;;9.13;2.80;;;20.10;72.60;;;;;;5101961;28;21548;-68
2024/02/16 11:36:03;;;;;;;9.00;3.33;;;20.10;72.90;;;;;;5105538;28;21101;-69
2024/02/16 11:38:33;;;;;;;10.10;3.10;;;20.20;72.80;;;;;;5105524;28;20465;-68
2024/02/16 11:41:03;;;;;;;8.50;2.80;;;20.10;72.20;;;;;;5099680;28;20519;-68
2024/02/16 11:43:33;;;;;;;9.03;3.33;;;19.90;71.20;;;;;;5104106;28;20548;-69
2024/02/16 11:46:12;;;;;;;10.23;2.33;;;19.60;72.00;;;;;;5102934;28;20449;-69
2024/02/16 11:48:41;;;;;;;8.07;1.83;;;19.30;68.90;;;;;;5104034;28;20504;-69
2024/02/16 11:51:10;;;;;;;13.20;2.90;;;19.00;69.00;;;;;;5100856;28;20469;-68
2024/02/16 11:53:38;;;;;;;11.20;2.70;;;18.70;73.30;;;;;;5100040;28;20893;-69
2024/02/16 11:56:06;;;;;;;10.40;3.50;;;18.50;75.10;;;;;;5100760;28;20526;-68
2024/02/16 11:58:36;;;;;;;24.13;5.43;;;18.20;76.10;;;;;;5099552;28;21144;-68
2024/02/16 12:01:11;;;;;;;11.80;3.03;;;18.30;78.20;;;;;;5100224;28;20853;-69
2024/02/16 12:03:42;;;;;;;9.57;3.43;;;18.40;75.50;;;;;;5101747;28;20471;-69
2024/02/16 12:06:20;;;;;;;9.37;2.63;;;18.60;76.60;;;;;;5100947;28;20446;-69
2024/02/16 12:08:48;;;;;;;9.43;3.20;;;18.60;76.00;;;;;;5103427;28;21021;-69
2024/02/16 12:11:16;;;;;;;10.07;2.63;;;18.70;76.70;;;;;;5101083;28;20525;-69
2024/02/16 12:13:45;;;;;;;10.47;3.37;;;18.80;77.00;;;;;;5103242;28;20518;-69
2024/02/16 12:16:12;;;;;;;11.77;3.30;;;19.10;75.70;;;;;;5102397;28;20457;-69
2024/02/16 12:18:42;;;;;;;9.53;3.33;;;19.30;76.00;;;;;;5103055;28;20469;-68
2024/02/16 12:21:10;;;;;;;9.37;3.57;;;19.50;74.20;;;;;;5102437;28;20542;-68
2024/02/16 12:23:38;;;;;;;8.77;3.00;;;19.10;74.80;;;;;;5103388;28;21092;-69
2024/02/16 12:26:08;;;;;;;11.80;3.47;;;18.80;75.10;;;;;;5100715;28;21254;-68
2024/02/16 12:28:37;;;;;;;12.27;3.60;;;18.60;75.60;;;;;;5101438;28;20517;-68
2024/02/16 12:31:05;;;;;;;11.83;4.03;;;18.40;75.60;;;;;;5102548;28;20477;-68
2024/02/16 12:33:33;;;;;;;11.50;3.87;;;18.10;76.50;;;;;;5100963;28;20454;-68
2024/02/16 12:36:03;;;;;;;14.20;3.50;;;18.00;78.60;;;;;;5102316;28;20437;-68
2024/02/16 12:38:32;;;;;;;11.40;3.60;;;17.90;78.70;;;;;;5101047;28;20445;-68
2024/02/16 12:41:00;;;;;;;9.20;3.20;;;17.70;79.20;;;;;;5093706;28;20451;-68
2024/02/16 12:43:28;;;;;;;8.73;3.23;;;17.60;80.90;;;;;;5096377;28;20548;-68
2024/02/16 12:45:56;;;;;;;9.50;3.27;;;17.70;81.50;;;;;;5098499;28;20540;-68
2024/02/16 12:48:24;;;;;;;10.10;3.13;;;17.90;80.70;;;;;;5098416;28;20438;-69
2024/02/16 12:50:52;;;;;;;9.20;2.80;;;17.90;81.20;;;;;;5101019;28;20469;-68
2024/02/16 12:53:24;;;;;;;9.43;3.43;;;18.10;78.80;;;;;;5099171;28;20449;-68
2024/02/16 12:55:52;;;;;;;11.40;3.40;;;18.20;76.80;;;;;;5103237;28;20468;-69